Terminal Aerodrome Forecast
Issued by NWS Lake Charles, LA

Home | Current Version | Previous Version | Text Only | Print | Product List | Glossary On
Versions: 1 2 3 4 5 6 7 8 9 10 11 12 13 14 15 16 17 18 19 20 21 22
000
FTUS44 KLCH 290520
TAFBPT
TAF
KBPT 290520Z 2906/3006 15016G24KT P6SM BKN015
      TEMPO 2908/2912 OVC009
     FM291200 15012G18KT P6SM OVC015
     FM291500 15016G22KT P6SM BKN035
      TEMPO 2920/2924 5SM -TSRA FEW016 BKN025CB
     FM300000 17016KT P6SM OVC025
      TEMPO 3000/3004 2SM -TSRA BKN019CB=

USA.gov is the U.S. government's official web portal to all federal, state and local government web resources and services.